sensor_id;sensor_type;location;lat;lon;timestamp;pressure;altitude;pressure_sealevel;temperature;humidity
42621;BME280;28252;53.336;-6.298;2023-02-12T00:00:09;103044.38;;;23.38;72.95
42621;BME280;28252;53.336;-6.298;2023-02-12T00:00:46;103044.25;;;23.40;72.95
42621;BME280;28252;53.336;-6.298;2023-02-12T00:01:18;103053.25;;;23.40;73.45
42621;BME280;28252;53.336;-6.298;2023-02-12T00:01:51;103044.25;;;23.40;72.89
42621;BME280;28252;53.336;-6.298;2023-02-12T00:02:22;103040.66;;;23.39;72.96
42621;BME280;28252;53.336;-6.298;2023-02-12T00:02:53;103055.00;;;23.41;72.92
42621;BME280;28252;53.336;-6.298;2023-02-12T00:03:26;103041.53;;;23.40;73.01
42621;BME280;28252;53.336;-6.298;2023-02-12T00:03:59;103050.69;;;23.39;73.22
42621;BME280;28252;53.336;-6.298;2023-02-12T00:04:33;103053.25;;;23.40;73.68
42621;BME280;28252;53.336;-6.298;2023-02-12T00:05:10;103046.22;;;23.38;73.15
42621;BME280;28252;53.336;-6.298;2023-02-12T00:05:43;103054.38;;;23.38;73.04
42621;BME280;28252;53.336;-6.298;2023-02-12T00:06:14;103054.38;;;23.38;73.77
42621;BME280;28252;53.336;-6.298;2023-02-12T00:06:49;103055.25;;;23.38;73.26
42621;BME280;28252;53.336;-6.298;2023-02-12T00:07:24;103046.22;;;23.38;73.70
42621;BME280;28252;53.336;-6.298;2023-02-12T00:07:55;103046.22;;;23.38;73.29
42621;BME280;28252;53.336;-6.298;2023-02-12T00:08:33;103048.09;;;23.37;73.38
42621;BME280;28252;53.336;-6.298;2023-02-12T00:09:07;103053.53;;;23.37;73.23
42621;BME280;28252;53.336;-6.298;2023-02-12T00:09:40;103054.38;;;23.38;73.36
42621;BME280;28252;53.336;-6.298;2023-02-12T00:10:12;103048.94;;;23.38;73.73
42621;BME280;28252;53.336;-6.298;2023-02-12T00:10:43;103052.69;;;23.37;73.71
42621;BME280;28252;53.336;-6.298;2023-02-12T00:11:20;103047.22;;;23.37;73.26
42621;BME280;28252;53.336;-6.298;2023-02-12T00:11:53;103052.69;;;23.37;73.58
42621;BME280;28252;53.336;-6.298;2023-02-12T00:13:45;103050.94;;;23.36;73.51
42621;BME280;28252;53.336;-6.298;2023-02-12T00:14:16;103052.81;;;23.35;73.66
42621;BME280;28252;53.336;-6.298;2023-02-12T00:14:47;103046.50;;;23.35;74.02
42621;BME280;28252;53.336;-6.298;2023-02-12T00:16:44;103055.53;;;23.35;74.09
42621;BME280;28252;53.336;-6.298;2023-02-12T00:17:20;103055.53;;;23.35;73.86
42621;BME280;28252;53.336;-6.298;2023-02-12T00:17:56;103052.94;;;23.34;73.95
42621;BME280;28252;53.336;-6.298;2023-02-12T00:18:31;103051.19;;;23.33;73.97
42621;BME280;28252;53.336;-6.298;2023-02-12T00:20:24;103056.63;;;23.33;74.28
42621;BME280;28252;53.336;-6.298;2023-02-12T00:21:00;103061.22;;;23.32;73.88
42621;BME280;28252;53.336;-6.298;2023-02-12T00:21:34;103057.66;;;23.31;74.34
42621;BME280;28252;53.336;-6.298;2023-02-12T00:22:08;103063.94;;;23.32;74.42
42621;BME280;28252;53.336;-6.298;2023-02-12T00:22:42;103060.38;;;23.31;74.46
42621;BME280;28252;53.336;-6.298;2023-02-12T00:23:17;103060.38;;;23.31;75.01
42621;BME280;28252;53.336;-6.298;2023-02-12T00:23:53;103064.06;;;23.30;74.45
42621;BME280;28252;53.336;-6.298;2023-02-12T00:24:26;103061.34;;;23.30;74.51
42621;BME280;28252;53.336;-6.298;2023-02-12T00:25:00;103055.06;;;23.30;74.86
42621;BME280;28252;53.336;-6.298;2023-02-12T00:25:33;103064.06;;;23.30;75.02
42621;BME280;28252;53.336;-6.298;2023-02-12T00:26:06;103059.66;;;23.29;74.86
42621;BME280;28252;53.336;-6.298;2023-02-12T00:26:43;103062.38;;;23.29;74.86
42621;BME280;28252;53.336;-6.298;2023-02-12T00:27:16;103063.22;;;23.30;74.29
42621;BME280;28252;53.336;-6.298;2023-02-12T00:27:50;103056.03;;;23.29;75.00
42621;BME280;28252;53.336;-6.298;2023-02-12T00:28:26;103055.19;;;23.28;74.96
42621;BME280;28252;53.336;-6.298;2023-02-12T00:29:02;103064.19;;;23.29;74.93
42621;BME280;28252;53.336;-6.298;2023-02-12T00:29:33;103056.03;;;23.29;74.84
42621;BME280;28252;53.336;-6.298;2023-02-12T00:30:09;103060.63;;;23.28;75.08
42621;BME280;28252;53.336;-6.298;2023-02-12T00:30:44;103065.22;;;23.28;75.46
42621;BME280;28252;53.336;-6.298;2023-02-12T00:31:18;103059.91;;;23.26;75.65
42621;BME280;28252;53.336;-6.298;2023-02-12T00:31:54;103060.75;;;23.27;75.14
42621;BME280;28252;53.336;-6.298;2023-02-12T00:32:35;103062.63;;;23.26;75.05
42621;BME280;28252;53.336;-6.298;2023-02-12T00:33:11;103053.63;;;23.26;75.04
42621;BME280;28252;53.336;-6.298;2023-02-12T00:33:44;103059.06;;;23.26;75.60
42621;BME280;28252;53.336;-6.298;2023-02-12T00:34:19;103056.34;;;23.26;75.30
42621;BME280;28252;53.336;-6.298;2023-02-12T00:34:55;103058.16;;;23.25;75.00
42621;BME280;28252;53.336;-6.298;2023-02-12T00:35:31;103061.91;;;23.24;75.10
42621;BME280;28252;53.336;-6.298;2023-02-12T00:36:04;103059.19;;;23.24;75.64
42621;BME280;28252;53.336;-6.298;2023-02-12T00:36:39;103059.19;;;23.24;75.58
42621;BME280;28252;53.336;-6.298;2023-02-12T00:37:13;103065.59;;;23.23;75.82
42621;BME280;28252;53.336;-6.298;2023-02-12T00:37:47;103059.19;;;23.24;75.04
42621;BME280;28252;53.336;-6.298;2023-02-12T00:38:18;103055.59;;;23.24;75.49
42621;BME280;28252;53.336;-6.298;2023-02-12T00:38:56;103057.44;;;23.23;76.26
42621;BME280;28252;53.336;-6.298;2023-02-12T00:39:29;103057.44;;;23.23;75.75
42621;BME280;28252;53.336;-6.298;2023-02-12T00:40:02;103057.44;;;23.23;75.27
42621;BME280;28252;53.336;-6.298;2023-02-12T00:40:36;103057.44;;;23.23;75.94
42621;BME280;28252;53.336;-6.298;2023-02-12T00:41:07;103054.72;;;23.23;75.76
42621;BME280;28252;53.336;-6.298;2023-02-12T00:41:38;103056.59;;;23.23;76.07
42621;BME280;28252;53.336;-6.298;2023-02-12T00:42:12;103053.00;;;23.22;75.71
42621;BME280;28252;53.336;-6.298;2023-02-12T00:42:45;103050.28;;;23.22;75.59
42621;BME280;28252;53.336;-6.298;2023-02-12T00:43:20;103056.72;;;23.21;75.85
42621;BME280;28252;53.336;-6.298;2023-02-12T00:43:58;103051.28;;;23.21;76.06
42621;BME280;28252;53.336;-6.298;2023-02-12T00:44:34;103053.16;;;23.21;75.75
42621;BME280;28252;53.336;-6.298;2023-02-12T00:45:11;103058.59;;;23.21;76.17
42621;BME280;28252;53.336;-6.298;2023-02-12T00:45:43;103052.28;;;23.20;76.22
42621;BME280;28252;53.336;-6.298;2023-02-12T00:46:16;103057.72;;;23.20;76.03
42621;BME280;28252;53.336;-6.298;2023-02-12T00:46:48;103057.72;;;23.20;76.18
42621;BME280;28252;53.336;-6.298;2023-02-12T00:47:23;103063.16;;;23.20;76.35
42621;BME280;28252;53.336;-6.298;2023-02-12T00:49:17;103054.28;;;23.18;76.24
42621;BME280;28252;53.336;-6.298;2023-02-12T00:49:52;103051.56;;;23.18;76.23
42621;BME280;28252;53.336;-6.298;2023-02-12T00:50:29;103047.97;;;23.18;76.15
42621;BME280;28252;53.336;-6.298;2023-02-12T00:51:04;103047.97;;;23.18;76.30
42621;BME280;28252;53.336;-6.298;2023-02-12T00:51:36;103056.28;;;23.16;76.87
42621;BME280;28252;53.336;-6.298;2023-02-12T00:52:09;103051.69;;;23.17;77.12
42621;BME280;28252;53.336;-6.298;2023-02-12T00:52:44;103050.84;;;23.16;76.41
42621;BME280;28252;53.336;-6.298;2023-02-12T00:53:20;103049.97;;;23.16;76.77
42621;BME280;28252;53.336;-6.298;2023-02-12T00:53:54;103054.53;;;23.15;76.93
42621;BME280;28252;53.336;-6.298;2023-02-12T00:54:27;103047.38;;;23.14;77.24
42621;BME280;28252;53.336;-6.298;2023-02-12T00:55:03;103052.81;;;23.14;77.10
42621;BME280;28252;53.336;-6.298;2023-02-12T00:55:39;103054.66;;;23.13;76.91
42621;BME280;28252;53.336;-6.298;2023-02-12T00:56:10;103053.81;;;23.13;77.35
42621;BME280;28252;53.336;-6.298;2023-02-12T00:56:44;103054.78;;;23.12;76.97
42621;BME280;28252;53.336;-6.298;2023-02-12T00:57:15;103057.50;;;23.12;77.28
42621;BME280;28252;53.336;-6.298;2023-02-12T00:57:51;103053.09;;;23.11;77.26
42621;BME280;28252;53.336;-6.298;2023-02-12T00:58:26;103047.66;;;23.11;77.37
42621;BME280;28252;53.336;-6.298;2023-02-12T00:58:59;103053.09;;;23.11;77.54
42621;BME280;28252;53.336;-6.298;2023-02-12T00:59:35;103040.47;;;23.10;77.00
42621;BME280;28252;53.336;-6.298;2023-02-12T01:00:14;103043.06;;;23.11;77.33
42621;BME280;28252;53.336;-6.298;2023-02-12T01:01:42;103036.91;;;23.09;77.55
42621;BME280;28252;53.336;-6.298;2023-02-12T01:02:13;103033.34;;;23.09;77.37
42621;BME280;28252;53.336;-6.298;2023-02-12T01:02:46;103038.78;;;23.09;77.31
42621;BME280;28252;53.336;-6.298;2023-02-12T01:03:20;103038.78;;;23.09;77.79
42621;BME280;28252;53.336;-6.298;2023-02-12T01:03:56;103037.03;;;23.08;77.42
42621;BME280;28252;53.336;-6.298;2023-02-12T01:04:27;103039.75;;;23.08;77.93
42621;BME280;28252;53.336;-6.298;2023-02-12T01:05:45;103036.19;;;23.07;77.58
42621;BME280;28252;53.336;-6.298;2023-02-12T01:06:19;103041.63;;;23.07;77.96
42621;BME280;28252;53.336;-6.298;2023-02-12T01:06:51;103035.31;;;23.07;77.81
42621;BME280;28252;53.336;-6.298;2023-02-12T01:07:25;103046.28;;;23.05;78.04
42621;BME280;28252;53.336;-6.298;2023-02-12T01:08:00;103041.75;;;23.06;77.49
42621;BME280;28252;53.336;-6.298;2023-02-12T01:08:31;103038.13;;;23.05;77.73
42621;BME280;28252;53.336;-6.298;2023-02-12T01:09:04;103039.03;;;23.06;77.96
42621;BME280;28252;53.336;-6.298;2023-02-12T01:09:35;103031.81;;;23.05;77.52
42621;BME280;28252;53.336;-6.298;2023-02-12T01:10:10;103036.31;;;23.06;78.01
42621;BME280;28252;53.336;-6.298;2023-02-12T01:12:06;103037.38;;;23.03;78.34
42621;BME280;28252;53.336;-6.298;2023-02-12T01:12:39;103032.97;;;23.02;77.86
42621;BME280;28252;53.336;-6.298;2023-02-12T01:13:13;103031.09;;;23.03;78.18
42621;BME280;28252;53.336;-6.298;2023-02-12T01:13:47;103026.66;;;23.02;78.06
42621;BME280;28252;53.336;-6.298;2023-02-12T01:15:12;103032.09;;;23.02;77.94
42621;BME280;28252;53.336;-6.298;2023-02-12T01:15:43;103031.22;;;23.01;78.35
42621;BME280;28252;53.336;-6.298;2023-02-12T01:16:18;103033.09;;;23.01;78.27
42621;BME280;28252;53.336;-6.298;2023-02-12T01:16:50;103029.50;;;23.00;78.40
42621;BME280;28252;53.336;-6.298;2023-02-12T01:17:22;103024.06;;;23.00;78.34
42621;BME280;28252;53.336;-6.298;2023-02-12T01:17:58;103028.66;;;23.00;78.26
42621;BME280;28252;53.336;-6.298;2023-02-12T01:18:31;103030.50;;;22.99;78.32
42621;BME280;28252;53.336;-6.298;2023-02-12T01:19:04;103032.38;;;22.99;78.14
42621;BME280;28252;53.336;-6.298;2023-02-12T01:19:35;103029.66;;;22.99;78.46
42621;BME280;28252;53.336;-6.298;2023-02-12T01:20:10;103025.19;;;22.98;78.79
42621;BME280;28252;53.336;-6.298;2023-02-12T01:20:43;103030.63;;;22.98;78.80
42621;BME280;28252;53.336;-6.298;2023-02-12T01:21:18;103028.91;;;22.97;80.46
42621;BME280;28252;53.336;-6.298;2023-02-12T01:21:56;103030.91;;;22.94;80.29
42621;BME280;28252;53.336;-6.298;2023-02-12T01:22:30;103023.00;;;22.91;79.46
42621;BME280;28252;53.336;-6.298;2023-02-12T01:23:07;103022.03;;;22.92;79.57
42621;BME280;28252;53.336;-6.298;2023-02-12T01:23:41;103031.91;;;22.93;79.28
42621;BME280;28252;53.336;-6.298;2023-02-12T01:24:22;103018.31;;;22.93;79.01
42621;BME280;28252;53.336;-6.298;2023-02-12T01:24:57;103018.31;;;22.93;79.13
42621;BME280;28252;53.336;-6.298;2023-02-12T01:25:30;103023.75;;;22.93;79.24
42621;BME280;28252;53.336;-6.298;2023-02-12T01:26:08;103023.75;;;22.93;79.42
42621;BME280;28252;53.336;-6.298;2023-02-12T01:26:48;103020.16;;;22.93;79.21
42621;BME280;28252;53.336;-6.298;2023-02-12T01:27:21;103014.72;;;22.93;79.47
42621;BME280;28252;53.336;-6.298;2023-02-12T01:28:32;103012.13;;;22.91;79.84
42621;BME280;28252;53.336;-6.298;2023-02-12T01:29:07;103014.84;;;22.91;80.00
42621;BME280;28252;53.336;-6.298;2023-02-12T01:30:12;103008.56;;;22.91;80.13
42621;BME280;28252;53.336;-6.298;2023-02-12T01:30:47;103008.56;;;22.91;79.86
42621;BME280;28252;53.336;-6.298;2023-02-12T01:31:24;103012.25;;;22.90;79.32
42621;BME280;28252;53.336;-6.298;2023-02-12T01:31:55;103010.44;;;22.90;79.72
42621;BME280;28252;53.336;-6.298;2023-02-12T01:32:30;103010.44;;;22.90;79.72
42621;BME280;28252;53.336;-6.298;2023-02-12T01:33:01;103003.25;;;22.89;79.85
42621;BME280;28252;53.336;-6.298;2023-02-12T01:33:32;103004.13;;;22.90;79.51
42621;BME280;28252;53.336;-6.298;2023-02-12T01:34:04;103014.13;;;22.89;79.63
42621;BME280;28252;53.336;-6.298;2023-02-12T01:34:40;103004.28;;;22.88;79.83
42621;BME280;28252;53.336;-6.298;2023-02-12T01:35:13;103009.72;;;22.88;80.11
42621;BME280;28252;53.336;-6.298;2023-02-12T01:35:49;103004.28;;;22.88;79.78
42621;BME280;28252;53.336;-6.298;2023-02-12T01:36:25;103011.53;;;22.88;80.15
42621;BME280;28252;53.336;-6.298;2023-02-12T01:37:01;103009.72;;;22.88;79.38
42621;BME280;28252;53.336;-6.298;2023-02-12T01:37:33;103012.44;;;22.88;80.32
42621;BME280;28252;53.336;-6.298;2023-02-12T01:38:07;103010.69;;;22.87;79.81
42621;BME280;28252;53.336;-6.298;2023-02-12T01:38:43;103012.56;;;22.87;79.80
42621;BME280;28252;53.336;-6.298;2023-02-12T01:39:14;103011.66;;;22.86;80.09
42621;BME280;28252;53.336;-6.298;2023-02-12T01:39:50;103013.41;;;22.87;79.59
42621;BME280;28252;53.336;-6.298;2023-02-12T01:40:23;103013.41;;;22.87;80.00
42621;BME280;28252;53.336;-6.298;2023-02-12T01:41:01;103009.97;;;22.85;80.18
42621;BME280;28252;53.336;-6.298;2023-02-12T01:41:36;103006.22;;;22.86;79.72
42621;BME280;28252;53.336;-6.298;2023-02-12T01:42:10;103009.97;;;22.85;80.65
42621;BME280;28252;53.336;-6.298;2023-02-12T01:42:45;103008.09;;;22.86;79.76
42621;BME280;28252;53.336;-6.298;2023-02-12T01:43:21;103007.25;;;22.85;80.37
42621;BME280;28252;53.336;-6.298;2023-02-12T01:44:45;103006.53;;;22.83;81.83
42621;BME280;28252;53.336;-6.298;2023-02-12T01:45:42;103003.81;;;22.83;80.34
42621;BME280;28252;53.336;-6.298;2023-02-12T01:46:17;103005.63;;;22.83;80.36
42621;BME280;28252;53.336;-6.298;2023-02-12T01:46:57;103002.06;;;22.82;80.57
42621;BME280;28252;53.336;-6.298;2023-02-12T01:47:31;103006.66;;;22.82;81.20
42621;BME280;28252;53.336;-6.298;2023-02-12T01:48:02;103006.78;;;22.80;80.68
42621;BME280;28252;53.336;-6.298;2023-02-12T01:48:45;103001.34;;;22.80;80.30
42621;BME280;28252;53.336;-6.298;2023-02-12T01:49:19;103008.47;;;22.81;80.92
42621;BME280;28252;53.336;-6.298;2023-02-12T01:49:52;103008.47;;;22.81;80.48
42621;BME280;28252;53.336;-6.298;2023-02-12T01:50:23;103004.06;;;22.80;80.32
42621;BME280;28252;53.336;-6.298;2023-02-12T01:50:59;103004.06;;;22.80;80.65
42621;BME280;28252;53.336;-6.298;2023-02-12T01:51:35;102998.63;;;22.80;80.77
42621;BME280;28252;53.336;-6.298;2023-02-12T01:52:21;102997.03;;;22.78;81.56
42621;BME280;28252;53.336;-6.298;2023-02-12T01:54:13;102994.44;;;22.76;80.82
42621;BME280;28252;53.336;-6.298;2023-02-12T01:54:49;102989.00;;;22.76;80.98
42621;BME280;28252;53.336;-6.298;2023-02-12T01:55:26;102992.72;;;22.75;80.99
42621;BME280;28252;53.336;-6.298;2023-02-12T01:55:59;102990.00;;;22.75;81.09
42621;BME280;28252;53.336;-6.298;2023-02-12T01:56:32;102989.00;;;22.76;80.89
42621;BME280;28252;53.336;-6.298;2023-02-12T01:57:03;102992.72;;;22.75;81.17
42621;BME280;28252;53.336;-6.298;2023-02-12T01:57:38;102987.28;;;22.75;81.18
42621;BME280;28252;53.336;-6.298;2023-02-12T01:58:12;102981.88;;;22.75;80.64
42621;BME280;28252;53.336;-6.298;2023-02-12T01:58:45;102984.56;;;22.75;81.03
42621;BME280;28252;53.336;-6.298;2023-02-12T01:59:20;102985.44;;;22.75;80.62
42621;BME280;28252;53.336;-6.298;2023-02-12T01:59:51;102980.97;;;22.74;80.80
42621;BME280;28252;53.336;-6.298;2023-02-12T02:00:31;102977.53;;;22.72;82.02
42621;BME280;28252;53.336;-6.298;2023-02-12T02:01:05;102984.13;;;22.70;83.14
42621;BME280;28252;53.336;-6.298;2023-02-12T02:01:37;102980.63;;;22.68;83.33
42621;BME280;28252;53.336;-6.298;2023-02-12T02:02:13;102984.38;;;22.67;83.01
42621;BME280;28252;53.336;-6.298;2023-02-12T02:02:48;102987.09;;;22.67;81.63
42621;BME280;28252;53.336;-6.298;2023-02-12T02:03:21;102981.53;;;22.68;81.78
42621;BME280;28252;53.336;-6.298;2023-02-12T02:04:03;102976.22;;;22.67;82.27
42621;BME280;28252;53.336;-6.298;2023-02-12T02:04:39;102975.22;;;22.68;82.01
42621;BME280;28252;53.336;-6.298;2023-02-12T02:06:18;102977.19;;;22.66;81.65
42621;BME280;28252;53.336;-6.298;2023-02-12T02:06:53;102975.50;;;22.65;81.72
42621;BME280;28252;53.336;-6.298;2023-02-12T02:07:28;102979.91;;;22.66;81.91
42621;BME280;28252;53.336;-6.298;2023-02-12T02:08:03;102977.19;;;22.66;82.06
42621;BME280;28252;53.336;-6.298;2023-02-12T02:08:36;102980.03;;;22.64;82.44
42621;BME280;28252;53.336;-6.298;2023-02-12T02:09:08;102982.63;;;22.66;81.55
42621;BME280;28252;53.336;-6.298;2023-02-12T02:09:46;102975.50;;;22.65;81.49
42621;BME280;28252;53.336;-6.298;2023-02-12T02:10:20;102976.34;;;22.65;82.06
42621;BME280;28252;53.336;-6.298;2023-02-12T02:11:02;102979.19;;;22.64;82.91
42621;BME280;28252;53.336;-6.298;2023-02-12T02:11:56;102979.19;;;22.64;81.92
42621;BME280;28252;53.336;-6.298;2023-02-12T02:12:50;102973.75;;;22.64;82.13
42621;BME280;28252;53.336;-6.298;2023-02-12T02:13:39;102973.03;;;22.62;83.07
42621;BME280;28252;53.336;-6.298;2023-02-12T02:14:30;102977.63;;;22.61;83.40
42621;BME280;28252;53.336;-6.298;2023-02-12T02:15:07;102973.16;;;22.60;82.60
42621;BME280;28252;53.336;-6.298;2023-02-12T02:15:38;102982.16;;;22.61;82.43
42621;BME280;28252;53.336;-6.298;2023-02-12T02:16:25;102974.00;;;22.61;82.25
42621;BME280;28252;53.336;-6.298;2023-02-12T02:18:45;102978.59;;;22.60;82.36
42621;BME280;28252;53.336;-6.298;2023-02-12T02:19:29;102976.88;;;22.59;81.93
42621;BME280;28252;53.336;-6.298;2023-02-12T02:22:16;102970.72;;;22.57;81.99
42621;BME280;28252;53.336;-6.298;2023-02-12T02:24:19;102979.72;;;22.57;82.04
42621;BME280;28252;53.336;-6.298;2023-02-12T02:30:42;102971.09;;;22.52;82.48
42621;BME280;28252;53.336;-6.298;2023-02-12T02:31:19;102972.81;;;22.53;82.15
42621;BME280;28252;53.336;-6.298;2023-02-12T02:32:02;102966.53;;;22.53;81.99
42621;BME280;28252;53.336;-6.298;2023-02-12T02:35:27;102968.66;;;22.49;82.87
42621;BME280;28252;53.336;-6.298;2023-02-12T02:38:33;102970.03;;;22.44;83.31
42621;BME280;28252;53.336;-6.298;2023-02-12T02:39:12;102970.91;;;22.44;83.32
42621;BME280;28252;53.336;-6.298;2023-02-12T02:39:53;102976.34;;;22.44;82.82
42621;BME280;28252;53.336;-6.298;2023-02-12T02:40:32;102970.91;;;22.44;84.22
42621;BME280;28252;53.336;-6.298;2023-02-12T02:41:07;102977.31;;;22.43;83.70
42621;BME280;28252;53.336;-6.298;2023-02-12T02:41:59;102977.56;;;22.40;84.41
42621;BME280;28252;53.336;-6.298;2023-02-12T02:43:35;102977.56;;;22.40;84.35
42621;BME280;28252;53.336;-6.298;2023-02-12T02:43:41;102980.41;;;22.38;84.70
42621;BME280;28252;53.336;-6.298;2023-02-12T02:44:32;102974.13;;;22.38;84.45
42621;BME280;28252;53.336;-6.298;2023-02-12T02:45:10;102974.13;;;22.38;83.85
42621;BME280;28252;53.336;-6.298;2023-02-12T02:45:44;102974.13;;;22.38;84.01
42621;BME280;28252;53.336;-6.298;2023-02-12T02:46:30;102976.97;;;22.36;84.32
42621;BME280;28252;53.336;-6.298;2023-02-12T02:47:05;102971.53;;;22.36;84.09
42621;BME280;28252;53.336;-6.298;2023-02-12T02:47:41;102981.53;;;22.36;83.54
42621;BME280;28252;53.336;-6.298;2023-02-12T02:48:58;102973.28;;;22.37;83.14
42621;BME280;28252;53.336;-6.298;2023-02-12T02:49:32;102982.28;;;22.38;83.90
42621;BME280;28252;53.336;-6.298;2023-02-12T02:50:11;102976.84;;;22.38;83.79
42621;BME280;28252;53.336;-6.298;2023-02-12T02:50:45;102983.25;;;22.37;83.33
42621;BME280;28252;53.336;-6.298;2023-02-12T02:51:22;102980.53;;;22.37;83.18
42621;BME280;28252;53.336;-6.298;2023-02-12T02:52:03;102980.41;;;22.38;83.05
42621;BME280;28252;53.336;-6.298;2023-02-12T02:52:40;102980.53;;;22.37;83.28
42621;BME280;28252;53.336;-6.298;2023-02-12T02:53:19;102980.53;;;22.37;83.53
42621;BME280;28252;53.336;-6.298;2023-02-12T02:54:02;102979.56;;;22.38;83.22
42621;BME280;28252;53.336;-6.298;2023-02-12T02:54:36;102979.56;;;22.38;83.16
42621;BME280;28252;53.336;-6.298;2023-02-12T02:55:12;102977.81;;;22.37;83.75
42621;BME280;28252;53.336;-6.298;2023-02-12T02:55:50;102986.97;;;22.36;83.38
42621;BME280;28252;53.336;-6.298;2023-02-12T02:56:23;102987.81;;;22.36;83.62
42621;BME280;28252;53.336;-6.298;2023-02-12T02:56:58;102979.81;;;22.35;83.53
42621;BME280;28252;53.336;-6.298;2023-02-12T02:57:48;102981.53;;;22.36;83.58
42621;BME280;28252;53.336;-6.298;2023-02-12T02:58:26;102981.53;;;22.36;83.51
42621;BME280;28252;53.336;-6.298;2023-02-12T02:59:04;102991.81;;;22.32;84.44
42621;BME280;28252;53.336;-6.298;2023-02-12T02:59:40;102990.91;;;22.32;84.00
42621;BME280;28252;53.336;-6.298;2023-02-12T03:00:20;102988.22;;;22.32;83.63
42621;BME280;28252;53.336;-6.298;2023-02-12T03:01:35;102984.63;;;22.31;84.30
42621;BME280;28252;53.336;-6.298;2023-02-12T03:02:14;102987.34;;;22.31;83.51
42621;BME280;28252;53.336;-6.298;2023-02-12T03:03:31;102984.63;;;22.31;83.95
42621;BME280;28252;53.336;-6.298;2023-02-12T03:03:47;102978.34;;;22.31;84.17
42621;BME280;28252;53.336;-6.298;2023-02-12T03:04:23;102986.63;;;22.29;85.03
42621;BME280;28252;53.336;-6.298;2023-02-12T03:06:03;102973.19;;;22.28;84.46
42621;BME280;28252;53.336;-6.298;2023-02-12T03:07:19;102979.47;;;22.28;84.04
42621;BME280;28252;53.336;-6.298;2023-02-12T03:08:13;102969.47;;;22.29;84.49
42621;BME280;28252;53.336;-6.298;2023-02-12T03:08:51;102969.47;;;22.29;84.03
42621;BME280;28252;53.336;-6.298;2023-02-12T03:09:31;102970.47;;;22.28;84.43
42621;BME280;28252;53.336;-6.298;2023-02-12T03:10:05;102975.91;;;22.28;84.29
42621;BME280;28252;53.336;-6.298;2023-02-12T03:10:39;102969.56;;;22.27;84.99
42621;BME280;28252;53.336;-6.298;2023-02-12T03:11:23;102972.41;;;22.26;84.18
42621;BME280;28252;53.336;-6.298;2023-02-12T03:12:04;102967.97;;;22.25;84.55
42621;BME280;28252;53.336;-6.298;2023-02-12T03:14:05;102966.25;;;22.24;85.27
42621;BME280;28252;53.336;-6.298;2023-02-12T03:14:33;102964.53;;;22.23;84.61
42621;BME280;28252;53.336;-6.298;2023-02-12T03:15:10;102965.50;;;22.22;84.53
42621;BME280;28252;53.336;-6.298;2023-02-12T03:15:56;102961.94;;;22.21;84.69
42621;BME280;28252;53.336;-6.298;2023-02-12T03:16:34;102961.09;;;22.20;85.22
42621;BME280;28252;53.336;-6.298;2023-02-12T03:17:16;102966.50;;;22.20;84.86
42621;BME280;28252;53.336;-6.298;2023-02-12T03:17:48;102961.94;;;22.21;84.98
42621;BME280;28252;53.336;-6.298;2023-02-12T03:19:27;102962.19;;;22.18;85.02
42621;BME280;28252;53.336;-6.298;2023-02-12T03:20:08;102963.03;;;22.18;84.69
42621;BME280;28252;53.336;-6.298;2023-02-12T03:20:43;102959.34;;;22.19;84.73
42621;BME280;28252;53.336;-6.298;2023-02-12T03:21:16;102966.63;;;22.19;85.09
42621;BME280;28252;53.336;-6.298;2023-02-12T03:21:59;102971.19;;;22.18;86.01
42621;BME280;28252;53.336;-6.298;2023-02-12T03:22:36;102957.78;;;22.17;84.84
42621;BME280;28252;53.336;-6.298;2023-02-12T03:23:18;102969.47;;;22.17;85.17
42621;BME280;28252;53.336;-6.298;2023-02-12T03:23:59;102961.34;;;22.17;84.94
42621;BME280;28252;53.336;-6.298;2023-02-12T03:26:31;102959.59;;;22.16;85.78
42621;BME280;28252;53.336;-6.298;2023-02-12T03:27:16;102963.31;;;22.15;85.59
42621;BME280;28252;53.336;-6.298;2023-02-12T03:28:08;102960.75;;;22.14;85.72
42621;BME280;28252;53.336;-6.298;2023-02-12T03:28:41;102958.88;;;22.14;85.61
42621;BME280;28252;53.336;-6.298;2023-02-12T03:29:17;102961.59;;;22.14;85.58
42621;BME280;28252;53.336;-6.298;2023-02-12T03:29:53;102967.03;;;22.14;85.67
42621;BME280;28252;53.336;-6.298;2023-02-12T03:30:35;102967.03;;;22.14;85.18
42621;BME280;28252;53.336;-6.298;2023-02-12T03:35:29;102965.28;;;22.13;85.50
42621;BME280;28252;53.336;-6.298;2023-02-12T03:36:09;102965.44;;;22.12;85.52
42621;BME280;28252;53.336;-6.298;2023-02-12T03:37:30;102960.13;;;22.10;85.48
42621;BME280;28252;53.336;-6.298;2023-02-12T03:38:58;102961.00;;;22.11;85.55
42621;BME280;28252;53.336;-6.298;2023-02-12T03:39:56;102961.84;;;22.11;85.46
42621;BME280;28252;53.336;-6.298;2023-02-12T03:40:33;102963.69;;;22.11;85.14
42621;BME280;28252;53.336;-6.298;2023-02-12T03:41:45;102963.56;;;22.12;85.39
42621;BME280;28252;53.336;-6.298;2023-02-12T03:43:03;102956.41;;;22.11;85.21
42621;BME280;28252;53.336;-6.298;2023-02-12T03:43:48;102954.59;;;22.12;85.59
42621;BME280;28252;53.336;-6.298;2023-02-12T03:45:21;102952.13;;;22.09;86.04
42621;BME280;28252;53.336;-6.298;2023-02-12T03:46:42;102951.22;;;22.08;85.59
42621;BME280;28252;53.336;-6.298;2023-02-12T03:48:58;102947.66;;;22.08;85.71
42621;BME280;28252;53.336;-6.298;2023-02-12T03:49:42;102945.81;;;22.08;85.36
42621;BME280;28252;53.336;-6.298;2023-02-12T03:50:22;102945.81;;;22.08;85.45
42621;BME280;28252;53.336;-6.298;2023-02-12T03:51:20;102938.66;;;22.07;85.00
42621;BME280;28252;53.336;-6.298;2023-02-12T03:51:55;102940.38;;;22.08;85.48
42621;BME280;28252;53.336;-6.298;2023-02-12T03:52:34;102939.53;;;22.08;85.31
42621;BME280;28252;53.336;-6.298;2023-02-12T03:53:08;102940.38;;;22.08;85.62
42621;BME280;28252;53.336;-6.298;2023-02-12T03:53:43;102952.25;;;22.07;85.48
42621;BME280;28252;53.336;-6.298;2023-02-12T03:54:17;102944.09;;;22.07;84.86
42621;BME280;28252;53.336;-6.298;2023-02-12T03:54:54;102936.94;;;22.06;85.22